sensor_id;sensor_type;location;lat;lon;timestamp;temperature;humidity
21047;DHT22;10682;50.874;3.656;2023-08-07T00:00:13;12.20;99.90
21047;DHT22;10682;50.874;3.656;2023-08-07T00:02:41;12.20;99.90
21047;DHT22;10682;50.874;3.656;2023-08-07T00:05:08;12.20;99.90
21047;DHT22;10682;50.874;3.656;2023-08-07T00:07:35;12.20;99.90
21047;DHT22;10682;50.874;3.656;2023-08-07T00:10:02;12.20;99.90
21047;DHT22;10682;50.874;3.656;2023-08-07T00:12:30;12.10;99.90
21047;DHT22;10682;50.874;3.656;2023-08-07T00:14:57;12.10;99.90
21047;DHT22;10682;50.874;3.656;2023-08-07T00:17:24;12.10;99.90
21047;DHT22;10682;50.874;3.656;2023-08-07T00:19:51;12.10;99.90
21047;DHT22;10682;50.874;3.656;2023-08-07T00:22:18;12.10;99.90
21047;DHT22;10682;50.874;3.656;2023-08-07T00:24:46;12.10;99.90
21047;DHT22;10682;50.874;3.656;2023-08-07T00:27:13;12.10;99.90
21047;DHT22;10682;50.874;3.656;2023-08-07T00:29:41;12.10;99.90
21047;DHT22;10682;50.874;3.656;2023-08-07T00:32:08;12.10;99.90
21047;DHT22;10682;50.874;3.656;2023-08-07T00:34:35;12.10;99.90
21047;DHT22;10682;50.874;3.656;2023-08-07T00:37:02;12.00;99.90
21047;DHT22;10682;50.874;3.656;2023-08-07T00:39:29;12.00;99.90
21047;DHT22;10682;50.874;3.656;2023-08-07T00:41:56;12.00;99.90
21047;DHT22;10682;50.874;3.656;2023-08-07T00:44:24;12.00;99.90
21047;DHT22;10682;50.874;3.656;2023-08-07T00:46:51;12.00;99.90
21047;DHT22;10682;50.874;3.656;2023-08-07T00:49:19;12.00;99.90
21047;DHT22;10682;50.874;3.656;2023-08-07T00:51:49;11.90;99.90
21047;DHT22;10682;50.874;3.656;2023-08-07T00:54:18;11.90;99.90
21047;DHT22;10682;50.874;3.656;2023-08-07T00:56:46;11.80;99.90
21047;DHT22;10682;50.874;3.656;2023-08-07T00:59:15;11.80;99.90
21047;DHT22;10682;50.874;3.656;2023-08-07T01:01:42;11.80;99.90
21047;DHT22;10682;50.874;3.656;2023-08-07T01:04:09;11.80;99.90
21047;DHT22;10682;50.874;3.656;2023-08-07T01:06:36;11.70;99.90
21047;DHT22;10682;50.874;3.656;2023-08-07T01:09:03;11.70;99.90
21047;DHT22;10682;50.874;3.656;2023-08-07T01:11:45;11.70;99.90
21047;DHT22;10682;50.874;3.656;2023-08-07T01:14:37;11.60;99.90
21047;DHT22;10682;50.874;3.656;2023-08-07T01:17:15;11.60;99.90
21047;DHT22;10682;50.874;3.656;2023-08-07T01:19:43;11.60;99.90
21047;DHT22;10682;50.874;3.656;2023-08-07T01:22:16;11.50;99.90
21047;DHT22;10682;50.874;3.656;2023-08-07T01:24:46;11.50;99.90
21047;DHT22;10682;50.874;3.656;2023-08-07T01:27:31;11.50;99.90
21047;DHT22;10682;50.874;3.656;2023-08-07T01:30:26;11.50;99.90
21047;DHT22;10682;50.874;3.656;2023-08-07T01:33:27;11.40;99.90
21047;DHT22;10682;50.874;3.656;2023-08-07T01:36:10;11.40;99.90
21047;DHT22;10682;50.874;3.656;2023-08-07T01:38:38;11.30;99.90
21047;DHT22;10682;50.874;3.656;2023-08-07T01:41:06;11.30;99.90
21047;DHT22;10682;50.874;3.656;2023-08-07T01:43:33;11.20;99.90
21047;DHT22;10682;50.874;3.656;2023-08-07T01:46:01;11.20;99.90
21047;DHT22;10682;50.874;3.656;2023-08-07T01:48:28;11.20;99.90
21047;DHT22;10682;50.874;3.656;2023-08-07T01:50:55;11.20;99.90
21047;DHT22;10682;50.874;3.656;2023-08-07T01:53:22;11.20;99.90
21047;DHT22;10682;50.874;3.656;2023-08-07T01:55:49;11.20;99.90
21047;DHT22;10682;50.874;3.656;2023-08-07T01:58:17;11.20;99.90
21047;DHT22;10682;50.874;3.656;2023-08-07T02:00:44;11.20;99.90
21047;DHT22;10682;50.874;3.656;2023-08-07T02:03:11;11.20;99.90
21047;DHT22;10682;50.874;3.656;2023-08-07T02:05:38;11.20;99.90
21047;DHT22;10682;50.874;3.656;2023-08-07T02:08:05;11.20;99.90
21047;DHT22;10682;50.874;3.656;2023-08-07T02:10:32;11.10;99.90
21047;DHT22;10682;50.874;3.656;2023-08-07T02:12:59;11.20;99.90
21047;DHT22;10682;50.874;3.656;2023-08-07T02:15:26;11.20;99.90
21047;DHT22;10682;50.874;3.656;2023-08-07T02:17:54;11.20;99.90
21047;DHT22;10682;50.874;3.656;2023-08-07T02:20:21;11.20;99.90
21047;DHT22;10682;50.874;3.656;2023-08-07T02:22:48;11.20;99.90
21047;DHT22;10682;50.874;3.656;2023-08-07T02:25:15;11.20;99.90
21047;DHT22;10682;50.874;3.656;2023-08-07T02:27:42;11.20;99.90
21047;DHT22;10682;50.874;3.656;2023-08-07T02:30:10;11.20;99.90
21047;DHT22;10682;50.874;3.656;2023-08-07T02:32:37;11.20;99.90
21047;DHT22;10682;50.874;3.656;2023-08-07T02:35:04;11.20;99.90
21047;DHT22;10682;50.874;3.656;2023-08-07T02:37:32;11.20;99.90
21047;DHT22;10682;50.874;3.656;2023-08-07T02:39:59;11.20;99.90
21047;DHT22;10682;50.874;3.656;2023-08-07T02:42:26;11.20;99.90
21047;DHT22;10682;50.874;3.656;2023-08-07T02:44:53;11.20;99.90
21047;DHT22;10682;50.874;3.656;2023-08-07T02:47:20;11.10;99.90
21047;DHT22;10682;50.874;3.656;2023-08-07T02:49:47;11.10;99.90
21047;DHT22;10682;50.874;3.656;2023-08-07T02:52:14;11.20;99.90
21047;DHT22;10682;50.874;3.656;2023-08-07T02:54:41;11.10;99.90
21047;DHT22;10682;50.874;3.656;2023-08-07T02:57:08;11.10;99.90
21047;DHT22;10682;50.874;3.656;2023-08-07T02:59:35;11.10;99.90
21047;DHT22;10682;50.874;3.656;2023-08-07T03:02:02;11.10;99.90
21047;DHT22;10682;50.874;3.656;2023-08-07T03:04:29;11.10;99.90
21047;DHT22;10682;50.874;3.656;2023-08-07T03:06:56;11.10;99.90
21047;DHT22;10682;50.874;3.656;2023-08-07T03:09:24;11.10;99.90
21047;DHT22;10682;50.874;3.656;2023-08-07T03:11:51;11.10;99.90
21047;DHT22;10682;50.874;3.656;2023-08-07T03:14:18;11.10;99.90
21047;DHT22;10682;50.874;3.656;2023-08-07T03:16:45;11.10;99.90
21047;DHT22;10682;50.874;3.656;2023-08-07T03:19:13;11.10;99.90
21047;DHT22;10682;50.874;3.656;2023-08-07T03:21:52;11.10;99.90
21047;DHT22;10682;50.874;3.656;2023-08-07T03:24:19;11.10;99.90
21047;DHT22;10682;50.874;3.656;2023-08-07T03:26:46;11.10;99.90
21047;DHT22;10682;50.874;3.656;2023-08-07T03:29:14;11.10;99.90
21047;DHT22;10682;50.874;3.656;2023-08-07T03:31:41;11.10;99.90
21047;DHT22;10682;50.874;3.656;2023-08-07T03:34:09;11.00;99.90
21047;DHT22;10682;50.874;3.656;2023-08-07T03:36:37;11.00;99.90
21047;DHT22;10682;50.874;3.656;2023-08-07T03:39:04;11.00;99.90
21047;DHT22;10682;50.874;3.656;2023-08-07T03:41:31;11.00;99.90
21047;DHT22;10682;50.874;3.656;2023-08-07T03:43:58;10.90;99.90
21047;DHT22;10682;50.874;3.656;2023-08-07T03:46:26;10.90;99.90
21047;DHT22;10682;50.874;3.656;2023-08-07T03:48:55;10.90;99.90
21047;DHT22;10682;50.874;3.656;2023-08-07T03:51:47;10.80;99.90
21047;DHT22;10682;50.874;3.656;2023-08-07T03:54:20;10.80;99.90
21047;DHT22;10682;50.874;3.656;2023-08-07T03:56:47;10.80;99.90
21047;DHT22;10682;50.874;3.656;2023-08-07T03:59:17;10.80;99.90
21047;DHT22;10682;50.874;3.656;2023-08-07T04:01:44;10.80;99.90
21047;DHT22;10682;50.874;3.656;2023-08-07T04:04:11;10.70;99.90
21047;DHT22;10682;50.874;3.656;2023-08-07T04:06:38;10.70;99.90
21047;DHT22;10682;50.874;3.656;2023-08-07T04:09:05;10.70;99.90
21047;DHT22;10682;50.874;3.656;2023-08-07T04:11:32;10.70;99.90
21047;DHT22;10682;50.874;3.656;2023-08-07T04:14:00;10.70;99.90
21047;DHT22;10682;50.874;3.656;2023-08-07T04:16:27;10.60;99.90
21047;DHT22;10682;50.874;3.656;2023-08-07T04:18:54;10.60;99.90
21047;DHT22;10682;50.874;3.656;2023-08-07T04:21:30;10.60;99.90
21047;DHT22;10682;50.874;3.656;2023-08-07T04:24:04;10.60;99.90
21047;DHT22;10682;50.874;3.656;2023-08-07T04:26:37;10.60;99.90
21047;DHT22;10682;50.874;3.656;2023-08-07T04:29:05;10.60;99.90
21047;DHT22;10682;50.874;3.656;2023-08-07T04:31:32;10.60;99.90
21047;DHT22;10682;50.874;3.656;2023-08-07T04:33:59;10.60;99.90
21047;DHT22;10682;50.874;3.656;2023-08-07T04:36:26;10.60;99.90
21047;DHT22;10682;50.874;3.656;2023-08-07T04:38:54;10.60;99.90
21047;DHT22;10682;50.874;3.656;2023-08-07T04:41:22;10.50;99.90
21047;DHT22;10682;50.874;3.656;2023-08-07T04:43:50;10.50;99.90
21047;DHT22;10682;50.874;3.656;2023-08-07T04:46:17;10.50;99.90
21047;DHT22;10682;50.874;3.656;2023-08-07T04:48:44;10.50;99.90
21047;DHT22;10682;50.874;3.656;2023-08-07T04:51:11;10.60;99.90
21047;DHT22;10682;50.874;3.656;2023-08-07T04:53:38;10.60;99.90
21047;DHT22;10682;50.874;3.656;2023-08-07T04:56:05;10.60;99.90
21047;DHT22;10682;50.874;3.656;2023-08-07T04:58:32;10.60;99.90
21047;DHT22;10682;50.874;3.656;2023-08-07T05:00:59;10.70;99.90
21047;DHT22;10682;50.874;3.656;2023-08-07T05:03:27;10.70;99.90
21047;DHT22;10682;50.874;3.656;2023-08-07T05:06:01;10.70;99.90
21047;DHT22;10682;50.874;3.656;2023-08-07T05:08:28;10.80;99.90
21047;DHT22;10682;50.874;3.656;2023-08-07T05:10:55;10.80;99.90
21047;DHT22;10682;50.874;3.656;2023-08-07T05:13:23;10.80;99.90
21047;DHT22;10682;50.874;3.656;2023-08-07T05:15:50;10.90;99.90
21047;DHT22;10682;50.874;3.656;2023-08-07T05:18:18;10.90;99.90
21047;DHT22;10682;50.874;3.656;2023-08-07T05:20:45;11.00;99.90
21047;DHT22;10682;50.874;3.656;2023-08-07T05:23:13;11.10;99.90
21047;DHT22;10682;50.874;3.656;2023-08-07T05:25:40;11.20;99.90
21047;DHT22;10682;50.874;3.656;2023-08-07T05:28:07;11.20;99.90
21047;DHT22;10682;50.874;3.656;2023-08-07T05:30:34;11.30;99.90
21047;DHT22;10682;50.874;3.656;2023-08-07T05:33:01;11.40;99.90
21047;DHT22;10682;50.874;3.656;2023-08-07T05:35:28;11.50;99.90
21047;DHT22;10682;50.874;3.656;2023-08-07T05:37:55;11.60;99.90
21047;DHT22;10682;50.874;3.656;2023-08-07T05:40:23;11.70;99.90
21047;DHT22;10682;50.874;3.656;2023-08-07T05:43:05;11.80;99.90
21047;DHT22;10682;50.874;3.656;2023-08-07T05:45:40;12.00;99.90
21047;DHT22;10682;50.874;3.656;2023-08-07T05:48:17;12.10;99.90
21047;DHT22;10682;50.874;3.656;2023-08-07T05:50:44;12.20;99.90
21047;DHT22;10682;50.874;3.656;2023-08-07T05:53:11;12.20;99.90
21047;DHT22;10682;50.874;3.656;2023-08-07T05:55:41;12.30;99.90
21047;DHT22;10682;50.874;3.656;2023-08-07T05:58:09;12.50;99.90
21047;DHT22;10682;50.874;3.656;2023-08-07T06:00:36;12.60;99.90
21047;DHT22;10682;50.874;3.656;2023-08-07T06:03:03;12.60;99.90
21047;DHT22;10682;50.874;3.656;2023-08-07T06:05:31;12.70;99.90
21047;DHT22;10682;50.874;3.656;2023-08-07T06:07:58;12.80;99.90
21047;DHT22;10682;50.874;3.656;2023-08-07T06:10:25;12.90;99.90
21047;DHT22;10682;50.874;3.656;2023-08-07T06:12:52;13.00;99.90
21047;DHT22;10682;50.874;3.656;2023-08-07T06:15:20;13.10;99.90
21047;DHT22;10682;50.874;3.656;2023-08-07T06:17:47;13.20;99.90
21047;DHT22;10682;50.874;3.656;2023-08-07T06:20:14;13.30;99.90
21047;DHT22;10682;50.874;3.656;2023-08-07T06:22:44;13.40;99.90
21047;DHT22;10682;50.874;3.656;2023-08-07T06:25:11;13.50;99.90
21047;DHT22;10682;50.874;3.656;2023-08-07T06:27:38;13.70;99.90
21047;DHT22;10682;50.874;3.656;2023-08-07T06:30:06;13.80;99.90
21047;DHT22;10682;50.874;3.656;2023-08-07T06:32:33;13.90;99.90
21047;DHT22;10682;50.874;3.656;2023-08-07T06:35:00;14.00;99.90
21047;DHT22;10682;50.874;3.656;2023-08-07T06:37:28;14.10;99.90
21047;DHT22;10682;50.874;3.656;2023-08-07T06:39:55;14.20;99.90
21047;DHT22;10682;50.874;3.656;2023-08-07T06:42:22;14.30;99.90
21047;DHT22;10682;50.874;3.656;2023-08-07T06:44:49;14.40;99.90
21047;DHT22;10682;50.874;3.656;2023-08-07T06:47:17;14.60;99.90
21047;DHT22;10682;50.874;3.656;2023-08-07T06:49:44;14.70;99.90
21047;DHT22;10682;50.874;3.656;2023-08-07T06:52:11;14.80;99.90
21047;DHT22;10682;50.874;3.656;2023-08-07T06:54:38;14.90;99.90
21047;DHT22;10682;50.874;3.656;2023-08-07T06:57:05;15.00;99.90
21047;DHT22;10682;50.874;3.656;2023-08-07T06:59:32;15.10;99.90
21047;DHT22;10682;50.874;3.656;2023-08-07T07:01:59;15.20;99.90
21047;DHT22;10682;50.874;3.656;2023-08-07T07:04:26;15.30;99.90
21047;DHT22;10682;50.874;3.656;2023-08-07T07:06:54;15.40;99.90
21047;DHT22;10682;50.874;3.656;2023-08-07T07:09:22;15.50;99.90
21047;DHT22;10682;50.874;3.656;2023-08-07T07:11:49;15.60;99.90
21047;DHT22;10682;50.874;3.656;2023-08-07T07:14:16;15.60;99.90
21047;DHT22;10682;50.874;3.656;2023-08-07T07:16:43;15.70;99.90
21047;DHT22;10682;50.874;3.656;2023-08-07T07:19:10;15.80;99.90
21047;DHT22;10682;50.874;3.656;2023-08-07T07:21:40;15.90;99.90
21047;DHT22;10682;50.874;3.656;2023-08-07T07:24:10;16.40;99.90
21047;DHT22;10682;50.874;3.656;2023-08-07T07:26:38;16.60;99.90
21047;DHT22;10682;50.874;3.656;2023-08-07T07:29:05;16.60;99.90
21047;DHT22;10682;50.874;3.656;2023-08-07T07:31:32;16.50;99.90
21047;DHT22;10682;50.874;3.656;2023-08-07T07:33:59;16.40;99.90
21047;DHT22;10682;50.874;3.656;2023-08-07T07:36:36;16.40;99.90
21047;DHT22;10682;50.874;3.656;2023-08-07T07:39:05;16.40;99.90
21047;DHT22;10682;50.874;3.656;2023-08-07T07:41:32;16.50;99.90
21047;DHT22;10682;50.874;3.656;2023-08-07T07:43:59;16.70;99.90
21047;DHT22;10682;50.874;3.656;2023-08-07T07:46:28;16.70;99.90
21047;DHT22;10682;50.874;3.656;2023-08-07T07:48:56;16.80;99.90
21047;DHT22;10682;50.874;3.656;2023-08-07T07:51:24;16.80;99.90
21047;DHT22;10682;50.874;3.656;2023-08-07T07:53:51;16.70;99.90
21047;DHT22;10682;50.874;3.656;2023-08-07T07:56:38;16.70;99.90
21047;DHT22;10682;50.874;3.656;2023-08-07T07:59:05;16.80;99.90
21047;DHT22;10682;50.874;3.656;2023-08-07T08:01:35;17.00;99.90
21047;DHT22;10682;50.874;3.656;2023-08-07T08:04:02;17.10;99.90
21047;DHT22;10682;50.874;3.656;2023-08-07T08:06:31;17.50;99.90
21047;DHT22;10682;50.874;3.656;2023-08-07T08:08:58;18.00;99.90
21047;DHT22;10682;50.874;3.656;2023-08-07T08:11:26;18.30;99.90
21047;DHT22;10682;50.874;3.656;2023-08-07T08:13:53;18.50;99.90
21047;DHT22;10682;50.874;3.656;2023-08-07T08:16:20;19.00;99.90
21047;DHT22;10682;50.874;3.656;2023-08-07T08:18:47;18.80;99.90
21047;DHT22;10682;50.874;3.656;2023-08-07T08:21:14;18.50;99.90
21047;DHT22;10682;50.874;3.656;2023-08-07T08:23:41;18.10;99.90
21047;DHT22;10682;50.874;3.656;2023-08-07T08:26:08;18.10;99.90
21047;DHT22;10682;50.874;3.656;2023-08-07T08:28:35;18.10;99.90
21047;DHT22;10682;50.874;3.656;2023-08-07T08:31:02;18.00;99.90
21047;DHT22;10682;50.874;3.656;2023-08-07T08:33:29;18.00;99.90
21047;DHT22;10682;50.874;3.656;2023-08-07T08:35:56;18.10;99.90
21047;DHT22;10682;50.874;3.656;2023-08-07T08:38:24;18.40;99.90
21047;DHT22;10682;50.874;3.656;2023-08-07T08:40:52;18.40;99.90
21047;DHT22;10682;50.874;3.656;2023-08-07T08:43:19;18.60;99.90
21047;DHT22;10682;50.874;3.656;2023-08-07T08:45:48;18.90;99.90
21047;DHT22;10682;50.874;3.656;2023-08-07T08:48:19;19.30;99.90
21047;DHT22;10682;50.874;3.656;2023-08-07T08:50:50;19.50;99.90
21047;DHT22;10682;50.874;3.656;2023-08-07T08:53:20;19.50;99.90
21047;DHT22;10682;50.874;3.656;2023-08-07T08:55:50;19.50;99.90
21047;DHT22;10682;50.874;3.656;2023-08-07T08:58:17;19.60;99.90
21047;DHT22;10682;50.874;3.656;2023-08-07T09:00:49;19.70;99.90
21047;DHT22;10682;50.874;3.656;2023-08-07T09:03:18;19.30;99.90
21047;DHT22;10682;50.874;3.656;2023-08-07T09:05:47;19.00;99.90
21047;DHT22;10682;50.874;3.656;2023-08-07T09:08:14;18.70;99.90
21047;DHT22;10682;50.874;3.656;2023-08-07T09:10:41;18.60;99.90
21047;DHT22;10682;50.874;3.656;2023-08-07T09:13:12;18.60;99.90
21047;DHT22;10682;50.874;3.656;2023-08-07T09:15:43;18.50;99.90
21047;DHT22;10682;50.874;3.656;2023-08-07T09:18:17;18.50;99.90
21047;DHT22;10682;50.874;3.656;2023-08-07T09:20:47;18.50;99.90
21047;DHT22;10682;50.874;3.656;2023-08-07T09:23:19;18.40;99.90
21047;DHT22;10682;50.874;3.656;2023-08-07T09:25:46;18.30;99.90
21047;DHT22;10682;50.874;3.656;2023-08-07T09:28:13;18.50;99.90
21047;DHT22;10682;50.874;3.656;2023-08-07T09:30:41;18.90;99.90
21047;DHT22;10682;50.874;3.656;2023-08-07T09:33:11;19.20;99.90
21047;DHT22;10682;50.874;3.656;2023-08-07T09:35:39;19.50;99.90
21047;DHT22;10682;50.874;3.656;2023-08-07T09:38:07;19.80;99.90
21047;DHT22;10682;50.874;3.656;2023-08-07T09:40:35;20.20;99.90
21047;DHT22;10682;50.874;3.656;2023-08-07T09:43:02;20.20;99.90
21047;DHT22;10682;50.874;3.656;2023-08-07T09:45:30;19.90;99.90
21047;DHT22;10682;50.874;3.656;2023-08-07T09:48:02;19.70;99.90
21047;DHT22;10682;50.874;3.656;2023-08-07T09:50:31;19.50;99.90
21047;DHT22;10682;50.874;3.656;2023-08-07T09:52:59;19.80;99.90
21047;DHT22;10682;50.874;3.656;2023-08-07T09:55:26;20.20;99.90
21047;DHT22;10682;50.874;3.656;2023-08-07T09:57:54;20.50;99.90
21047;DHT22;10682;50.874;3.656;2023-08-07T10:00:21;20.80;99.90
21047;DHT22;10682;50.874;3.656;2023-08-07T10:02:49;21.20;99.90
21047;DHT22;10682;50.874;3.656;2023-08-07T10:05:17;21.10;99.90
21047;DHT22;10682;50.874;3.656;2023-08-07T10:07:46;21.00;99.90
21047;DHT22;10682;50.874;3.656;2023-08-07T10:10:14;21.20;99.90
21047;DHT22;10682;50.874;3.656;2023-08-07T10:12:42;21.20;99.90
21047;DHT22;10682;50.874;3.656;2023-08-07T10:15:13;21.30;99.90
21047;DHT22;10682;50.874;3.656;2023-08-07T10:17:41;21.40;99.90
21047;DHT22;10682;50.874;3.656;2023-08-07T10:20:11;21.50;99.90
21047;DHT22;10682;50.874;3.656;2023-08-07T10:22:41;21.50;99.90
21047;DHT22;10682;50.874;3.656;2023-08-07T10:25:09;21.60;99.90
21047;DHT22;10682;50.874;3.656;2023-08-07T10:27:38;21.70;99.90
21047;DHT22;10682;50.874;3.656;2023-08-07T10:30:09;22.00;99.90
21047;DHT22;10682;50.874;3.656;2023-08-07T10:32:42;22.00;99.90
21047;DHT22;10682;50.874;3.656;2023-08-07T10:35:26;21.90;99.90
21047;DHT22;10682;50.874;3.656;2023-08-07T10:38:09;21.90;99.90
21047;DHT22;10682;50.874;3.656;2023-08-07T10:41:09;22.00;99.90
21047;DHT22;10682;50.874;3.656;2023-08-07T10:43:44;22.20;99.90
21047;DHT22;10682;50.874;3.656;2023-08-07T10:46:16;22.00;99.90
21047;DHT22;10682;50.874;3.656;2023-08-07T10:48:55;22.40;99.90
21047;DHT22;10682;50.874;3.656;2023-08-07T10:51:29;22.40;99.90
21047;DHT22;10682;50.874;3.656;2023-08-07T10:53:58;22.50;99.90
21047;DHT22;10682;50.874;3.656;2023-08-07T10:56:33;22.70;99.90
21047;DHT22;10682;50.874;3.656;2023-08-07T10:59:11;22.90;99.90
21047;DHT22;10682;50.874;3.656;2023-08-07T11:01:42;23.00;99.90
21047;DHT22;10682;50.874;3.656;2023-08-07T11:04:22;22.80;99.90
21047;DHT22;10682;50.874;3.656;2023-08-07T11:06:52;22.70;99.90
21047;DHT22;10682;50.874;3.656;2023-08-07T11:09:19;22.00;99.90
21047;DHT22;10682;50.874;3.656;2023-08-07T11:11:47;21.60;99.90
21047;DHT22;10682;50.874;3.656;2023-08-07T11:14:16;21.00;99.90
21047;DHT22;10682;50.874;3.656;2023-08-07T11:16:45;20.60;99.90
21047;DHT22;10682;50.874;3.656;2023-08-07T11:19:15;20.80;99.90
21047;DHT22;10682;50.874;3.656;2023-08-07T11:21:44;21.30;99.90
21047;DHT22;10682;50.874;3.656;2023-08-07T11:24:16;21.70;99.90
21047;DHT22;10682;50.874;3.656;2023-08-07T11:26:46;21.90;99.90
21047;DHT22;10682;50.874;3.656;2023-08-07T11:29:19;22.30;99.90
21047;DHT22;10682;50.874;3.656;2023-08-07T11:31:47;22.10;99.90
21047;DHT22;10682;50.874;3.656;2023-08-07T11:34:14;22.30;99.90
21047;DHT22;10682;50.874;3.656;2023-08-07T11:36:44;22.40;99.90
21047;DHT22;10682;50.874;3.656;2023-08-07T11:39:13;22.40;99.90
21047;DHT22;10682;50.874;3.656;2023-08-07T11:41:41;22.40;99.90
21047;DHT22;10682;50.874;3.656;2023-08-07T11:44:08;22.70;99.90
21047;DHT22;10682;50.874;3.656;2023-08-07T11:46:36;22.50;99.90
21047;DHT22;10682;50.874;3.656;2023-08-07T11:49:03;22.00;99.90
21047;DHT22;10682;50.874;3.656;2023-08-07T11:51:31;21.50;99.90
21047;DHT22;10682;50.874;3.656;2023-08-07T11:53:59;21.10;99.90
21047;DHT22;10682;50.874;3.656;2023-08-07T11:56:27;21.40;99.90
21047;DHT22;10682;50.874;3.656;2023-08-07T11:58:54;22.00;99.90
21047;DHT22;10682;50.874;3.656;2023-08-07T12:01:25;22.20;99.90
21047;DHT22;10682;50.874;3.656;2023-08-07T12:04:08;22.70;99.90
21047;DHT22;10682;50.874;3.656;2023-08-07T12:06:37;23.00;99.90
21047;DHT22;10682;50.874;3.656;2023-08-07T12:09:11;23.10;99.90
21047;DHT22;10682;50.874;3.656;2023-08-07T12:11:41;23.20;99.90
21047;DHT22;10682;50.874;3.656;2023-08-07T12:14:08;23.10;99.90
21047;DHT22;10682;50.874;3.656;2023-08-07T12:16:36;22.80;99.90
21047;DHT22;10682;50.874;3.656;2023-08-07T12:19:03;22.10;99.90
21047;DHT22;10682;50.874;3.656;2023-08-07T12:21:31;21.50;99.90
21047;DHT22;10682;50.874;3.656;2023-08-07T12:24:00;21.20;99.90
21047;DHT22;10682;50.874;3.656;2023-08-07T12:26:27;21.40;99.90
21047;DHT22;10682;50.874;3.656;2023-08-07T12:28:54;21.50;99.90
21047;DHT22;10682;50.874;3.656;2023-08-07T12:31:21;21.60;99.90
21047;DHT22;10682;50.874;3.656;2023-08-07T12:33:49;22.00;99.90
21047;DHT22;10682;50.874;3.656;2023-08-07T12:36:17;22.30;99.90
21047;DHT22;10682;50.874;3.656;2023-08-07T12:38:46;22.60;99.90
21047;DHT22;10682;50.874;3.656;2023-08-07T12:41:14;22.80;99.90
21047;DHT22;10682;50.874;3.656;2023-08-07T12:43:44;23.20;99.90
21047;DHT22;10682;50.874;3.656;2023-08-07T12:46:11;23.40;99.90
21047;DHT22;10682;50.874;3.656;2023-08-07T12:48:41;23.40;99.90
21047;DHT22;10682;50.874;3.656;2023-08-07T12:51:08;23.10;99.90
21047;DHT22;10682;50.874;3.656;2023-08-07T12:53:35;22.50;99.90
21047;DHT22;10682;50.874;3.656;2023-08-07T12:56:03;21.90;99.90
21047;DHT22;10682;50.874;3.656;2023-08-07T12:58:31;21.60;99.90
21047;DHT22;10682;50.874;3.656;2023-08-07T13:00:58;21.60;99.90
21047;DHT22;10682;50.874;3.656;2023-08-07T13:03:25;21.70;99.90
21047;DHT22;10682;50.874;3.656;2023-08-07T13:05:53;21.80;99.90
21047;DHT22;10682;50.874;3.656;2023-08-07T13:08:19;22.10;99.90
21047;DHT22;10682;50.874;3.656;2023-08-07T13:10:47;22.50;99.90
21047;DHT22;10682;50.874;3.656;2023-08-07T13:13:16;22.80;99.90
21047;DHT22;10682;50.874;3.656;2023-08-07T13:15:43;22.80;99.90
21047;DHT22;10682;50.874;3.656;2023-08-07T13:18:10;23.00;99.90
21047;DHT22;10682;50.874;3.656;2023-08-07T13:20:37;23.00;99.90
21047;DHT22;10682;50.874;3.656;2023-08-07T13:23:05;23.00;99.90
21047;DHT22;10682;50.874;3.656;2023-08-07T13:25:35;22.90;99.90
21047;DHT22;10682;50.874;3.656;2023-08-07T13:28:03;22.80;99.90
21047;DHT22;10682;50.874;3.656;2023-08-07T13:30:33;22.50;99.90
21047;DHT22;10682;50.874;3.656;2023-08-07T13:33:03;22.00;99.90
21047;DHT22;10682;50.874;3.656;2023-08-07T13:35:31;21.80;99.90
21047;DHT22;10682;50.874;3.656;2023-08-07T13:38:00;21.70;99.90
21047;DHT22;10682;50.874;3.656;2023-08-07T13:40:31;21.60;99.90
21047;DHT22;10682;50.874;3.656;2023-08-07T13:42:58;21.20;99.90
21047;DHT22;10682;50.874;3.656;2023-08-07T13:45:29;21.00;99.90
21047;DHT22;10682;50.874;3.656;2023-08-07T13:47:56;21.40;99.90
21047;DHT22;10682;50.874;3.656;2023-08-07T13:50:23;21.90;99.90
21047;DHT22;10682;50.874;3.656;2023-08-07T13:52:50;22.10;99.90
21047;DHT22;10682;50.874;3.656;2023-08-07T13:55:37;21.90;99.90
21047;DHT22;10682;50.874;3.656;2023-08-07T13:58:04;22.00;99.90
21047;DHT22;10682;50.874;3.656;2023-08-07T14:00:32;22.20;99.90
21047;DHT22;10682;50.874;3.656;2023-08-07T14:03:01;22.30;99.90
21047;DHT22;10682;50.874;3.656;2023-08-07T14:05:28;22.40;99.90
21047;DHT22;10682;50.874;3.656;2023-08-07T14:07:55;22.30;99.90
21047;DHT22;10682;50.874;3.656;2023-08-07T14:10:24;21.90;99.90
21047;DHT22;10682;50.874;3.656;2023-08-07T14:12:51;21.70;99.90
21047;DHT22;10682;50.874;3.656;2023-08-07T14:15:18;21.40;99.90
21047;DHT22;10682;50.874;3.656;2023-08-07T14:17:45;21.20;99.90
21047;DHT22;10682;50.874;3.656;2023-08-07T14:20:12;21.10;99.90
21047;DHT22;10682;50.874;3.656;2023-08-07T14:22:39;21.20;99.90
21047;DHT22;10682;50.874;3.656;2023-08-07T14:25:08;21.30;99.90
21047;DHT22;10682;50.874;3.656;2023-08-07T14:27:35;21.40;99.90
21047;DHT22;10682;50.874;3.656;2023-08-07T14:30:03;21.50;99.90
21047;DHT22;10682;50.874;3.656;2023-08-07T14:32:30;21.40;99.90
21047;DHT22;10682;50.874;3.656;2023-08-07T14:34:57;21.50;99.90
21047;DHT22;10682;50.874;3.656;2023-08-07T14:37:24;21.40;99.90
21047;DHT22;10682;50.874;3.656;2023-08-07T14:39:52;21.40;99.90
21047;DHT22;10682;50.874;3.656;2023-08-07T14:42:19;21.20;99.90
21047;DHT22;10682;50.874;3.656;2023-08-07T14:44:46;21.20;99.90
21047;DHT22;10682;50.874;3.656;2023-08-07T14:47:13;21.20;99.90
21047;DHT22;10682;50.874;3.656;2023-08-07T14:49:40;21.30;99.90
21047;DHT22;10682;50.874;3.656;2023-08-07T14:52:07;21.20;99.90
21047;DHT22;10682;50.874;3.656;2023-08-07T14:54:34;21.10;99.90
21047;DHT22;10682;50.874;3.656;2023-08-07T14:57:02;21.00;99.90
21047;DHT22;10682;50.874;3.656;2023-08-07T14:59:29;20.80;99.90
21047;DHT22;10682;50.874;3.656;2023-08-07T15:01:56;20.70;99.90
21047;DHT22;10682;50.874;3.656;2023-08-07T15:04:24;20.80;99.90
21047;DHT22;10682;50.874;3.656;2023-08-07T15:06:51;20.90;99.90
21047;DHT22;10682;50.874;3.656;2023-08-07T15:09:18;20.90;99.90
21047;DHT22;10682;50.874;3.656;2023-08-07T15:11:46;20.90;99.90
21047;DHT22;10682;50.874;3.656;2023-08-07T15:14:14;20.70;99.90
21047;DHT22;10682;50.874;3.656;2023-08-07T15:16:41;20.60;99.90
21047;DHT22;10682;50.874;3.656;2023-08-07T15:19:08;20.60;99.90
21047;DHT22;10682;50.874;3.656;2023-08-07T15:21:36;20.50;99.90
21047;DHT22;10682;50.874;3.656;2023-08-07T15:24:03;20.50;99.90
21047;DHT22;10682;50.874;3.656;2023-08-07T15:26:31;20.40;99.90
21047;DHT22;10682;50.874;3.656;2023-08-07T15:28:58;20.30;99.90
21047;DHT22;10682;50.874;3.656;2023-08-07T15:31:25;20.20;99.90
21047;DHT22;10682;50.874;3.656;2023-08-07T15:33:53;20.10;99.90
21047;DHT22;10682;50.874;3.656;2023-08-07T15:36:22;19.90;99.90
21047;DHT22;10682;50.874;3.656;2023-08-07T15:38:49;19.80;99.90